sensor_id;sensor_type;location;lat;lon;timestamp;P1;durP1;ratioP1;P2;durP2;ratioP2
4001;SDS011;2015;48.670;9.060;2023-11-21T00:00:19;5.73;;;4.30;;
4001;SDS011;2015;48.670;9.060;2023-11-21T00:02:51;5.30;;;4.80;;
4001;SDS011;2015;48.670;9.060;2023-11-21T00:05:23;8.80;;;4.67;;
4001;SDS011;2015;48.670;9.060;2023-11-21T00:07:55;5.70;;;5.23;;
4001;SDS011;2015;48.670;9.060;2023-11-21T00:10:27;4.57;;;3.83;;
4001;SDS011;2015;48.670;9.060;2023-11-21T00:12:59;4.50;;;3.20;;
4001;SDS011;2015;48.670;9.060;2023-11-21T00:15:33;4.03;;;3.63;;
4001;SDS011;2015;48.670;9.060;2023-11-21T00:18:05;8.52;;;4.00;;
4001;SDS011;2015;48.670;9.060;2023-11-21T00:20:37;6.30;;;4.30;;
4001;SDS011;2015;48.670;9.060;2023-11-21T00:23:09;5.83;;;3.70;;
4001;SDS011;2015;48.670;9.060;2023-11-21T00:25:40;5.43;;;3.03;;
4001;SDS011;2015;48.670;9.060;2023-11-21T00:28:12;3.20;;;3.00;;
4001;SDS011;2015;48.670;9.060;2023-11-21T00:30:44;3.80;;;3.23;;
4001;SDS011;2015;48.670;9.060;2023-11-21T00:33:16;2.97;;;2.77;;
4001;SDS011;2015;48.670;9.060;2023-11-21T00:35:47;3.55;;;3.25;;
4001;SDS011;2015;48.670;9.060;2023-11-21T00:38:19;4.90;;;2.80;;
4001;SDS011;2015;48.670;9.060;2023-11-21T00:40:51;3.03;;;2.67;;
4001;SDS011;2015;48.670;9.060;2023-11-21T00:43:24;6.03;;;3.00;;
4001;SDS011;2015;48.670;9.060;2023-11-21T00:45:56;3.07;;;2.90;;
4001;SDS011;2015;48.670;9.060;2023-11-21T00:48:27;3.30;;;3.00;;
4001;SDS011;2015;48.670;9.060;2023-11-21T00:50:59;3.37;;;3.17;;
4001;SDS011;2015;48.670;9.060;2023-11-21T00:53:32;5.67;;;2.90;;
4001;SDS011;2015;48.670;9.060;2023-11-21T00:56:03;3.53;;;3.23;;
4001;SDS011;2015;48.670;9.060;2023-11-21T00:58:36;4.80;;;3.33;;
4001;SDS011;2015;48.670;9.060;2023-11-21T01:01:07;3.30;;;3.10;;
4001;SDS011;2015;48.670;9.060;2023-11-21T01:03:39;3.47;;;3.17;;
4001;SDS011;2015;48.670;9.060;2023-11-21T01:06:11;9.00;;;2.83;;
4001;SDS011;2015;48.670;9.060;2023-11-21T01:08:46;4.50;;;4.20;;
4001;SDS011;2015;48.670;9.060;2023-11-21T01:11:18;2.50;;;2.30;;
4001;SDS011;2015;48.670;9.060;2023-11-21T01:13:49;6.03;;;2.50;;
4001;SDS011;2015;48.670;9.060;2023-11-21T01:16:21;5.17;;;3.60;;
4001;SDS011;2015;48.670;9.060;2023-11-21T01:18:53;3.00;;;2.80;;
4001;SDS011;2015;48.670;9.060;2023-11-21T01:21:25;3.50;;;2.23;;
4001;SDS011;2015;48.670;9.060;2023-11-21T01:23:57;3.43;;;2.23;;
4001;SDS011;2015;48.670;9.060;2023-11-21T01:26:29;9.37;;;2.60;;
4001;SDS011;2015;48.670;9.060;2023-11-21T01:29:00;2.60;;;2.40;;
4001;SDS011;2015;48.670;9.060;2023-11-21T01:31:32;2.53;;;2.33;;
4001;SDS011;2015;48.670;9.060;2023-11-21T01:34:04;2.97;;;2.10;;
4001;SDS011;2015;48.670;9.060;2023-11-21T01:36:36;3.03;;;2.83;;
4001;SDS011;2015;48.670;9.060;2023-11-21T01:39:07;2.30;;;2.20;;
4001;SDS011;2015;48.670;9.060;2023-11-21T01:41:40;2.60;;;2.40;;
4001;SDS011;2015;48.670;9.060;2023-11-21T01:44:11;2.30;;;2.20;;
4001;SDS011;2015;48.670;9.060;2023-11-21T01:46:44;2.10;;;1.93;;
4001;SDS011;2015;48.670;9.060;2023-11-21T01:49:17;2.30;;;2.20;;
4001;SDS011;2015;48.670;9.060;2023-11-21T01:51:51;2.80;;;2.13;;
4001;SDS011;2015;48.670;9.060;2023-11-21T01:54:23;1.83;;;1.70;;
4001;SDS011;2015;48.670;9.060;2023-11-21T01:56:56;2.10;;;2.00;;
4001;SDS011;2015;48.670;9.060;2023-11-21T01:59:34;3.50;;;2.20;;
4001;SDS011;2015;48.670;9.060;2023-11-21T02:02:08;3.73;;;2.40;;
4001;SDS011;2015;48.670;9.060;2023-11-21T02:04:40;2.53;;;1.70;;
4001;SDS011;2015;48.670;9.060;2023-11-21T02:07:13;2.23;;;2.13;;
4001;SDS011;2015;48.670;9.060;2023-11-21T02:09:44;2.90;;;2.70;;
4001;SDS011;2015;48.670;9.060;2023-11-21T02:12:16;2.57;;;1.90;;
4001;SDS011;2015;48.670;9.060;2023-11-21T02:14:48;4.40;;;1.73;;
4001;SDS011;2015;48.670;9.060;2023-11-21T02:17:20;2.37;;;1.83;;
4001;SDS011;2015;48.670;9.060;2023-11-21T02:19:51;2.13;;;1.93;;
4001;SDS011;2015;48.670;9.060;2023-11-21T02:22:23;4.50;;;2.10;;
4001;SDS011;2015;48.670;9.060;2023-11-21T02:24:59;4.30;;;2.40;;
4001;SDS011;2015;48.670;9.060;2023-11-21T02:27:32;1.63;;;1.50;;
4001;SDS011;2015;48.670;9.060;2023-11-21T02:30:04;1.77;;;1.67;;
4001;SDS011;2015;48.670;9.060;2023-11-21T02:32:36;1.57;;;1.47;;
4001;SDS011;2015;48.670;9.060;2023-11-21T02:35:20;5.57;;;1.90;;
4001;SDS011;2015;48.670;9.060;2023-11-21T02:37:52;3.00;;;1.70;;
4001;SDS011;2015;48.670;9.060;2023-11-21T02:40:24;1.60;;;1.50;;
4001;SDS011;2015;48.670;9.060;2023-11-21T02:42:58;1.67;;;1.30;;
4001;SDS011;2015;48.670;9.060;2023-11-21T02:45:30;1.83;;;1.60;;
4001;SDS011;2015;48.670;9.060;2023-11-21T02:48:02;2.57;;;2.30;;
4001;SDS011;2015;48.670;9.060;2023-11-21T02:50:35;3.93;;;1.80;;
4001;SDS011;2015;48.670;9.060;2023-11-21T02:53:08;4.70;;;1.70;;
4001;SDS011;2015;48.670;9.060;2023-11-21T02:55:42;1.80;;;1.60;;
4001;SDS011;2015;48.670;9.060;2023-11-21T02:58:13;1.53;;;1.43;;
4001;SDS011;2015;48.670;9.060;2023-11-21T03:00:45;1.60;;;1.50;;
4001;SDS011;2015;48.670;9.060;2023-11-21T03:03:17;3.30;;;1.73;;
4001;SDS011;2015;48.670;9.060;2023-11-21T03:05:49;2.60;;;2.17;;
4001;SDS011;2015;48.670;9.060;2023-11-21T03:08:21;2.07;;;1.57;;
4001;SDS011;2015;48.670;9.060;2023-11-21T03:10:53;2.00;;;1.80;;
4001;SDS011;2015;48.670;9.060;2023-11-21T03:13:24;1.40;;;1.30;;
4001;SDS011;2015;48.670;9.060;2023-11-21T03:15:56;1.60;;;1.50;;
4001;SDS011;2015;48.670;9.060;2023-11-21T03:18:28;1.43;;;1.23;;
4001;SDS011;2015;48.670;9.060;2023-11-21T03:21:00;1.50;;;1.33;;
4001;SDS011;2015;48.670;9.060;2023-11-21T03:23:32;2.90;;;1.80;;
4001;SDS011;2015;48.670;9.060;2023-11-21T03:26:04;1.30;;;1.20;;
4001;SDS011;2015;48.670;9.060;2023-11-21T03:28:37;1.40;;;1.30;;
4001;SDS011;2015;48.670;9.060;2023-11-21T03:31:08;1.47;;;1.33;;
4001;SDS011;2015;48.670;9.060;2023-11-21T03:33:40;1.33;;;1.23;;
4001;SDS011;2015;48.670;9.060;2023-11-21T03:36:12;2.17;;;1.63;;
4001;SDS011;2015;48.670;9.060;2023-11-21T03:38:48;1.40;;;1.30;;
4001;SDS011;2015;48.670;9.060;2023-11-21T03:41:20;1.50;;;1.40;;
4001;SDS011;2015;48.670;9.060;2023-11-21T03:43:52;2.60;;;1.90;;
4001;SDS011;2015;48.670;9.060;2023-11-21T03:46:23;1.93;;;1.83;;
4001;SDS011;2015;48.670;9.060;2023-11-21T03:48:55;1.73;;;1.40;;
4001;SDS011;2015;48.670;9.060;2023-11-21T03:51:27;2.73;;;1.80;;
4001;SDS011;2015;48.670;9.060;2023-11-21T03:53:59;1.20;;;1.10;;
4001;SDS011;2015;48.670;9.060;2023-11-21T03:56:30;1.70;;;1.60;;
4001;SDS011;2015;48.670;9.060;2023-11-21T03:59:02;2.10;;;1.30;;
4001;SDS011;2015;48.670;9.060;2023-11-21T04:01:34;1.30;;;1.20;;
4001;SDS011;2015;48.670;9.060;2023-11-21T04:04:06;1.37;;;1.27;;
4001;SDS011;2015;48.670;9.060;2023-11-21T04:06:38;1.53;;;1.43;;
4001;SDS011;2015;48.670;9.060;2023-11-21T04:09:09;1.43;;;1.33;;
4001;SDS011;2015;48.670;9.060;2023-11-21T04:11:41;2.83;;;1.40;;
4001;SDS011;2015;48.670;9.060;2023-11-21T04:14:14;1.33;;;1.23;;
4001;SDS011;2015;48.670;9.060;2023-11-21T04:16:45;1.60;;;1.50;;
4001;SDS011;2015;48.670;9.060;2023-11-21T04:19:17;2.13;;;1.70;;
4001;SDS011;2015;48.670;9.060;2023-11-21T04:21:49;1.33;;;1.23;;
4001;SDS011;2015;48.670;9.060;2023-11-21T04:24:21;1.20;;;1.10;;
4001;SDS011;2015;48.670;9.060;2023-11-21T04:26:53;1.40;;;1.30;;
4001;SDS011;2015;48.670;9.060;2023-11-21T04:29:25;1.20;;;1.10;;
4001;SDS011;2015;48.670;9.060;2023-11-21T04:31:57;1.50;;;1.40;;
4001;SDS011;2015;48.670;9.060;2023-11-21T04:34:29;1.20;;;1.10;;
4001;SDS011;2015;48.670;9.060;2023-11-21T04:37:02;4.83;;;1.40;;
4001;SDS011;2015;48.670;9.060;2023-11-21T04:39:34;3.90;;;1.27;;
4001;SDS011;2015;48.670;9.060;2023-11-21T04:42:06;2.53;;;1.33;;
4001;SDS011;2015;48.670;9.060;2023-11-21T04:44:37;1.20;;;1.10;;
4001;SDS011;2015;48.670;9.060;2023-11-21T04:47:12;1.87;;;1.53;;
4001;SDS011;2015;48.670;9.060;2023-11-21T04:49:44;1.20;;;1.10;;
4001;SDS011;2015;48.670;9.060;2023-11-21T04:52:18;1.93;;;1.83;;
4001;SDS011;2015;48.670;9.060;2023-11-21T04:54:51;2.87;;;1.23;;
4001;SDS011;2015;48.670;9.060;2023-11-21T04:57:25;3.27;;;1.30;;
4001;SDS011;2015;48.670;9.060;2023-11-21T04:59:57;1.40;;;1.30;;
4001;SDS011;2015;48.670;9.060;2023-11-21T05:02:29;1.40;;;1.30;;
4001;SDS011;2015;48.670;9.060;2023-11-21T05:05:06;1.60;;;1.50;;
4001;SDS011;2015;48.670;9.060;2023-11-21T05:07:39;2.50;;;1.73;;
4001;SDS011;2015;48.670;9.060;2023-11-21T05:10:12;4.03;;;3.63;;
4001;SDS011;2015;48.670;9.060;2023-11-21T05:12:46;3.33;;;2.97;;
4001;SDS011;2015;48.670;9.060;2023-11-21T05:15:18;1.53;;;1.43;;
4001;SDS011;2015;48.670;9.060;2023-11-21T05:17:49;1.40;;;1.30;;
4001;SDS011;2015;48.670;9.060;2023-11-21T05:20:23;1.60;;;1.50;;
4001;SDS011;2015;48.670;9.060;2023-11-21T05:22:55;1.93;;;1.73;;
4001;SDS011;2015;48.670;9.060;2023-11-21T05:25:27;2.67;;;2.57;;
4001;SDS011;2015;48.670;9.060;2023-11-21T05:27:59;3.27;;;2.03;;
4001;SDS011;2015;48.670;9.060;2023-11-21T05:30:32;2.50;;;2.30;;
4001;SDS011;2015;48.670;9.060;2023-11-21T05:33:04;3.00;;;2.70;;
4001;SDS011;2015;48.670;9.060;2023-11-21T05:35:36;3.33;;;3.13;;
4001;SDS011;2015;48.670;9.060;2023-11-21T05:38:08;3.17;;;2.97;;
4001;SDS011;2015;48.670;9.060;2023-11-21T05:40:40;3.92;;;3.53;;
4001;SDS011;2015;48.670;9.060;2023-11-21T05:43:12;3.60;;;3.20;;
4001;SDS011;2015;48.670;9.060;2023-11-21T05:45:43;5.23;;;4.80;;
4001;SDS011;2015;48.670;9.060;2023-11-21T05:48:15;3.60;;;3.40;;
4001;SDS011;2015;48.670;9.060;2023-11-21T05:50:47;6.87;;;4.83;;
4001;SDS011;2015;48.670;9.060;2023-11-21T05:53:20;7.93;;;7.23;;
4001;SDS011;2015;48.670;9.060;2023-11-21T05:55:53;8.57;;;7.80;;
4001;SDS011;2015;48.670;9.060;2023-11-21T05:58:24;14.13;;;10.53;;
4001;SDS011;2015;48.670;9.060;2023-11-21T06:00:56;10.20;;;9.17;;
4001;SDS011;2015;48.670;9.060;2023-11-21T06:03:28;5.10;;;4.80;;
4001;SDS011;2015;48.670;9.060;2023-11-21T06:06:00;4.50;;;4.20;;
4001;SDS011;2015;48.670;9.060;2023-11-21T06:08:32;3.83;;;2.67;;
4001;SDS011;2015;48.670;9.060;2023-11-21T06:11:04;2.33;;;2.17;;
4001;SDS011;2015;48.670;9.060;2023-11-21T06:13:36;3.58;;;2.60;;
4001;SDS011;2015;48.670;9.060;2023-11-21T06:16:07;2.40;;;2.30;;
4001;SDS011;2015;48.670;9.060;2023-11-21T06:18:40;2.20;;;2.10;;
4001;SDS011;2015;48.670;9.060;2023-11-21T06:21:12;2.57;;;2.37;;
4001;SDS011;2015;48.670;9.060;2023-11-21T06:23:45;2.50;;;2.20;;
4001;SDS011;2015;48.670;9.060;2023-11-21T06:26:16;2.97;;;2.77;;
4001;SDS011;2015;48.670;9.060;2023-11-21T06:28:48;2.37;;;2.27;;
4001;SDS011;2015;48.670;9.060;2023-11-21T06:31:22;5.43;;;2.30;;
4001;SDS011;2015;48.670;9.060;2023-11-21T06:33:54;3.40;;;3.20;;
4001;SDS011;2015;48.670;9.060;2023-11-21T06:36:26;3.33;;;2.97;;
4001;SDS011;2015;48.670;9.060;2023-11-21T06:38:57;3.23;;;3.03;;
4001;SDS011;2015;48.670;9.060;2023-11-21T06:41:29;11.67;;;2.67;;
4001;SDS011;2015;48.670;9.060;2023-11-21T06:44:01;3.60;;;3.07;;
4001;SDS011;2015;48.670;9.060;2023-11-21T06:46:34;2.60;;;2.40;;
4001;SDS011;2015;48.670;9.060;2023-11-21T06:49:06;2.73;;;2.53;;
4001;SDS011;2015;48.670;9.060;2023-11-21T06:51:37;4.27;;;2.53;;
4001;SDS011;2015;48.670;9.060;2023-11-21T06:54:09;2.47;;;2.37;;
4001;SDS011;2015;48.670;9.060;2023-11-21T06:56:41;2.10;;;2.00;;
4001;SDS011;2015;48.670;9.060;2023-11-21T06:59:12;2.87;;;2.50;;
4001;SDS011;2015;48.670;9.060;2023-11-21T07:01:44;3.43;;;2.50;;
4001;SDS011;2015;48.670;9.060;2023-11-21T07:04:16;4.30;;;2.80;;
4001;SDS011;2015;48.670;9.060;2023-11-21T07:06:49;3.50;;;2.90;;
4001;SDS011;2015;48.670;9.060;2023-11-21T07:09:21;4.80;;;4.03;;
4001;SDS011;2015;48.670;9.060;2023-11-21T07:11:57;23.20;;;13.83;;
4001;SDS011;2015;48.670;9.060;2023-11-21T07:14:29;9.50;;;6.27;;
4001;SDS011;2015;48.670;9.060;2023-11-21T07:17:00;3.90;;;3.70;;
4001;SDS011;2015;48.670;9.060;2023-11-21T07:19:32;4.10;;;3.60;;
4001;SDS011;2015;48.670;9.060;2023-11-21T07:22:05;3.70;;;3.40;;
4001;SDS011;2015;48.670;9.060;2023-11-21T07:24:37;6.03;;;2.70;;
4001;SDS011;2015;48.670;9.060;2023-11-21T07:27:08;3.70;;;3.40;;
4001;SDS011;2015;48.670;9.060;2023-11-21T07:29:40;3.33;;;3.03;;
4001;SDS011;2015;48.670;9.060;2023-11-21T07:32:12;2.80;;;2.70;;
4001;SDS011;2015;48.670;9.060;2023-11-21T07:34:45;2.87;;;2.67;;
4001;SDS011;2015;48.670;9.060;2023-11-21T07:37:17;5.30;;;3.60;;
4001;SDS011;2015;48.670;9.060;2023-11-21T07:39:48;5.00;;;4.60;;
4001;SDS011;2015;48.670;9.060;2023-11-21T07:42:20;6.13;;;5.27;;
4001;SDS011;2015;48.670;9.060;2023-11-21T07:44:52;7.10;;;6.40;;
4001;SDS011;2015;48.670;9.060;2023-11-21T07:47:24;6.27;;;5.67;;
4001;SDS011;2015;48.670;9.060;2023-11-21T07:49:58;6.10;;;4.47;;
4001;SDS011;2015;48.670;9.060;2023-11-21T07:52:30;4.57;;;4.17;;
4001;SDS011;2015;48.670;9.060;2023-11-21T07:55:02;3.17;;;2.80;;
4001;SDS011;2015;48.670;9.060;2023-11-21T07:57:34;9.60;;;6.97;;
4001;SDS011;2015;48.670;9.060;2023-11-21T08:00:06;12.13;;;7.30;;
4001;SDS011;2015;48.670;9.060;2023-11-21T08:02:40;4.63;;;3.30;;
4001;SDS011;2015;48.670;9.060;2023-11-21T08:05:14;3.17;;;3.07;;
4001;SDS011;2015;48.670;9.060;2023-11-21T08:07:58;3.80;;;3.30;;
4001;SDS011;2015;48.670;9.060;2023-11-21T08:10:30;3.40;;;3.20;;
4001;SDS011;2015;48.670;9.060;2023-11-21T08:13:02;2.63;;;2.13;;
4001;SDS011;2015;48.670;9.060;2023-11-21T08:15:34;2.40;;;2.30;;
4001;SDS011;2015;48.670;9.060;2023-11-21T08:18:08;2.53;;;2.33;;
4001;SDS011;2015;48.670;9.060;2023-11-21T08:20:40;2.20;;;2.10;;
4001;SDS011;2015;48.670;9.060;2023-11-21T08:23:12;2.40;;;2.30;;
4001;SDS011;2015;48.670;9.060;2023-11-21T08:25:43;2.43;;;2.23;;
4001;SDS011;2015;48.670;9.060;2023-11-21T08:28:16;2.20;;;2.00;;
4001;SDS011;2015;48.670;9.060;2023-11-21T08:30:47;2.40;;;1.50;;
4001;SDS011;2015;48.670;9.060;2023-11-21T08:33:19;2.13;;;2.03;;
4001;SDS011;2015;48.670;9.060;2023-11-21T08:35:51;2.00;;;1.90;;
4001;SDS011;2015;48.670;9.060;2023-11-21T08:38:23;2.10;;;1.90;;
4001;SDS011;2015;48.670;9.060;2023-11-21T08:40:55;1.77;;;1.67;;
4001;SDS011;2015;48.670;9.060;2023-11-21T08:43:27;2.10;;;1.90;;
4001;SDS011;2015;48.670;9.060;2023-11-21T08:45:58;1.87;;;1.77;;
4001;SDS011;2015;48.670;9.060;2023-11-21T08:48:30;1.33;;;1.23;;
4001;SDS011;2015;48.670;9.060;2023-11-21T08:51:03;3.20;;;2.90;;
4001;SDS011;2015;48.670;9.060;2023-11-21T08:53:35;5.57;;;2.10;;
4001;SDS011;2015;48.670;9.060;2023-11-21T08:56:07;6.40;;;1.97;;
4001;SDS011;2015;48.670;9.060;2023-11-21T08:58:43;2.67;;;2.57;;
4001;SDS011;2015;48.670;9.060;2023-11-21T09:01:14;1.97;;;1.70;;
4001;SDS011;2015;48.670;9.060;2023-11-21T09:03:46;4.07;;;1.50;;
4001;SDS011;2015;48.670;9.060;2023-11-21T09:06:19;2.53;;;1.90;;
4001;SDS011;2015;48.670;9.060;2023-11-21T09:08:51;2.07;;;1.97;;
4001;SDS011;2015;48.670;9.060;2023-11-21T09:11:22;1.97;;;1.83;;
4001;SDS011;2015;48.670;9.060;2023-11-21T09:13:54;2.80;;;2.60;;
4001;SDS011;2015;48.670;9.060;2023-11-21T09:16:26;2.80;;;2.60;;
4001;SDS011;2015;48.670;9.060;2023-11-21T09:18:58;2.00;;;1.90;;
4001;SDS011;2015;48.670;9.060;2023-11-21T09:21:33;2.10;;;2.00;;
4001;SDS011;2015;48.670;9.060;2023-11-21T09:24:05;2.03;;;1.93;;
4001;SDS011;2015;48.670;9.060;2023-11-21T09:26:40;2.40;;;2.30;;
4001;SDS011;2015;48.670;9.060;2023-11-21T09:29:12;2.93;;;2.83;;
4001;SDS011;2015;48.670;9.060;2023-11-21T09:31:44;2.37;;;2.17;;
4001;SDS011;2015;48.670;9.060;2023-11-21T09:34:16;3.43;;;3.13;;
4001;SDS011;2015;48.670;9.060;2023-11-21T09:36:48;2.80;;;2.60;;
4001;SDS011;2015;48.670;9.060;2023-11-21T09:39:20;9.63;;;5.07;;
4001;SDS011;2015;48.670;9.060;2023-11-21T09:41:52;3.77;;;3.40;;
4001;SDS011;2015;48.670;9.060;2023-11-21T09:47:16;2.00;;;1.90;;
4001;SDS011;2015;48.670;9.060;2023-11-21T09:49:48;2.20;;;2.10;;
4001;SDS011;2015;48.670;9.060;2023-11-21T09:52:26;2.20;;;2.10;;
4001;SDS011;2015;48.670;9.060;2023-11-21T09:54:59;2.20;;;2.00;;
4001;SDS011;2015;48.670;9.060;2023-11-21T09:57:33;1.73;;;1.63;;
4001;SDS011;2015;48.670;9.060;2023-11-21T10:00:05;2.40;;;2.00;;
4001;SDS011;2015;48.670;9.060;2023-11-21T10:02:43;2.03;;;1.93;;
4001;SDS011;2015;48.670;9.060;2023-11-21T10:05:15;2.50;;;2.30;;
4001;SDS011;2015;48.670;9.060;2023-11-21T10:07:49;2.40;;;2.20;;
4001;SDS011;2015;48.670;9.060;2023-11-21T10:10:22;1.83;;;1.73;;
4001;SDS011;2015;48.670;9.060;2023-11-21T10:12:56;1.88;;;1.73;;
4001;SDS011;2015;48.670;9.060;2023-11-21T10:15:28;2.27;;;2.07;;
4001;SDS011;2015;48.670;9.060;2023-11-21T10:18:02;4.27;;;2.87;;
4001;SDS011;2015;48.670;9.060;2023-11-21T10:20:35;1.73;;;1.63;;
4001;SDS011;2015;48.670;9.060;2023-11-21T10:23:09;1.77;;;1.67;;
4001;SDS011;2015;48.670;9.060;2023-11-21T10:25:42;2.37;;;2.20;;
4001;SDS011;2015;48.670;9.060;2023-11-21T10:28:14;2.60;;;2.17;;
4001;SDS011;2015;48.670;9.060;2023-11-21T10:30:46;2.03;;;1.93;;
4001;SDS011;2015;48.670;9.060;2023-11-21T10:33:21;1.90;;;1.80;;
4001;SDS011;2015;48.670;9.060;2023-11-21T10:35:59;2.30;;;2.20;;
4001;SDS011;2015;48.670;9.060;2023-11-21T10:38:33;2.10;;;2.00;;
4001;SDS011;2015;48.670;9.060;2023-11-21T10:41:13;2.33;;;2.23;;
4001;SDS011;2015;48.670;9.060;2023-11-21T10:43:47;2.37;;;2.20;;
4001;SDS011;2015;48.670;9.060;2023-11-21T10:46:18;2.63;;;2.05;;
4001;SDS011;2015;48.670;9.060;2023-11-21T10:48:54;2.70;;;2.60;;
4001;SDS011;2015;48.670;9.060;2023-11-21T10:51:28;2.20;;;2.10;;
4001;SDS011;2015;48.670;9.060;2023-11-21T10:54:00;2.70;;;2.50;;
4001;SDS011;2015;48.670;9.060;2023-11-21T10:56:32;4.57;;;2.80;;
4001;SDS011;2015;48.670;9.060;2023-11-21T10:59:12;3.17;;;2.90;;
4001;SDS011;2015;48.670;9.060;2023-11-21T11:01:47;2.30;;;2.20;;
4001;SDS011;2015;48.670;9.060;2023-11-21T11:04:24;2.17;;;2.07;;
4001;SDS011;2015;48.670;9.060;2023-11-21T11:06:59;2.33;;;2.23;;
4001;SDS011;2015;48.670;9.060;2023-11-21T11:09:36;2.70;;;2.50;;
4001;SDS011;2015;48.670;9.060;2023-11-21T11:12:08;2.23;;;2.13;;
4001;SDS011;2015;48.670;9.060;2023-11-21T11:14:41;2.83;;;2.63;;
4001;SDS011;2015;48.670;9.060;2023-11-21T11:17:14;3.13;;;2.20;;
4001;SDS011;2015;48.670;9.060;2023-11-21T11:19:47;2.40;;;2.20;;
4001;SDS011;2015;48.670;9.060;2023-11-21T11:22:24;2.67;;;2.47;;
4001;SDS011;2015;48.670;9.060;2023-11-21T11:36:34;3.20;;;3.00;;
4001;SDS011;2015;48.670;9.060;2023-11-21T11:39:54;2.57;;;2.47;;
4001;SDS011;2015;48.670;9.060;2023-11-21T11:42:21;4.43;;;3.10;;
4001;SDS011;2015;48.670;9.060;2023-11-21T11:44:54;3.00;;;2.80;;
4001;SDS011;2015;48.670;9.060;2023-11-21T11:47:28;2.50;;;2.20;;
4001;SDS011;2015;48.670;9.060;2023-11-21T11:50:09;3.60;;;3.20;;
4001;SDS011;2015;48.670;9.060;2023-11-21T11:52:48;2.78;;;2.58;;
4001;SDS011;2015;48.670;9.060;2023-11-21T11:55:26;2.30;;;2.10;;
4001;SDS011;2015;48.670;9.060;2023-11-21T11:58:04;2.80;;;2.60;;
4001;SDS011;2015;48.670;9.060;2023-11-21T12:00:37;2.53;;;2.33;;
4001;SDS011;2015;48.670;9.060;2023-11-21T12:03:11;2.70;;;2.50;;
4001;SDS011;2015;48.670;9.060;2023-11-21T12:05:46;2.07;;;1.97;;
4001;SDS011;2015;48.670;9.060;2023-11-21T12:08:18;2.67;;;2.47;;
4001;SDS011;2015;48.670;9.060;2023-11-21T12:10:51;2.37;;;2.20;;
4001;SDS011;2015;48.670;9.060;2023-11-21T12:13:25;3.63;;;2.00;;
4001;SDS011;2015;48.670;9.060;2023-11-21T12:15:59;3.37;;;2.10;;
4001;SDS011;2015;48.670;9.060;2023-11-21T12:18:31;4.80;;;2.27;;
4001;SDS011;2015;48.670;9.060;2023-11-21T12:21:03;1.97;;;1.87;;
4001;SDS011;2015;48.670;9.060;2023-11-21T12:23:35;2.10;;;1.97;;
4001;SDS011;2015;48.670;9.060;2023-11-21T12:26:07;2.03;;;1.93;;
4001;SDS011;2015;48.670;9.060;2023-11-21T12:28:39;2.13;;;1.92;;
4001;SDS011;2015;48.670;9.060;2023-11-21T12:31:11;2.63;;;2.43;;
4001;SDS011;2015;48.670;9.060;2023-11-21T12:33:52;2.30;;;2.20;;
4001;SDS011;2015;48.670;9.060;2023-11-21T12:36:24;3.83;;;3.53;;
4001;SDS011;2015;48.670;9.060;2023-11-21T12:38:56;1.83;;;1.70;;
4001;SDS011;2015;48.670;9.060;2023-11-21T12:41:28;2.33;;;2.23;;
4001;SDS011;2015;48.670;9.060;2023-11-21T12:44:00;2.10;;;2.00;;
4001;SDS011;2015;48.670;9.060;2023-11-21T12:46:32;1.67;;;1.57;;
4001;SDS011;2015;48.670;9.060;2023-11-21T12:49:05;1.50;;;1.40;;
4001;SDS011;2015;48.670;9.060;2023-11-21T12:51:37;1.70;;;1.60;;
4001;SDS011;2015;48.670;9.060;2023-11-21T12:54:09;1.30;;;1.20;;
4001;SDS011;2015;48.670;9.060;2023-11-21T12:56:41;1.90;;;1.80;;
4001;SDS011;2015;48.670;9.060;2023-11-21T12:59:15;2.23;;;2.13;;
4001;SDS011;2015;48.670;9.060;2023-11-21T13:01:49;1.30;;;1.20;;
4001;SDS011;2015;48.670;9.060;2023-11-21T13:04:29;2.03;;;1.93;;
4001;SDS011;2015;48.670;9.060;2023-11-21T13:07:03;1.47;;;1.37;;
4001;SDS011;2015;48.670;9.060;2023-11-21T13:09:45;1.60;;;1.50;;
4001;SDS011;2015;48.670;9.060;2023-11-21T13:12:17;2.67;;;2.10;;
4001;SDS011;2015;48.670;9.060;2023-11-21T13:14:56;1.43;;;1.33;;
4001;SDS011;2015;48.670;9.060;2023-11-21T13:17:30;2.30;;;2.10;;
4001;SDS011;2015;48.670;9.060;2023-11-21T13:20:02;1.60;;;1.50;;
4001;SDS011;2015;48.670;9.060;2023-11-21T13:22:38;1.90;;;1.80;;
4001;SDS011;2015;48.670;9.060;2023-11-21T13:25:10;2.03;;;1.93;;
4001;SDS011;2015;48.670;9.060;2023-11-21T13:27:42;2.77;;;2.20;;
4001;SDS011;2015;48.670;9.060;2023-11-21T13:30:16;2.40;;;2.20;;
4001;SDS011;2015;48.670;9.060;2023-11-21T13:32:51;2.60;;;2.40;;
4001;SDS011;2015;48.670;9.060;2023-11-21T13:35:24;2.63;;;2.43;;
4001;SDS011;2015;48.670;9.060;2023-11-21T13:38:04;3.90;;;3.50;;
4001;SDS011;2015;48.670;9.060;2023-11-21T13:40:38;10.40;;;2.77;;
4001;SDS011;2015;48.670;9.060;2023-11-21T13:43:15;2.97;;;2.77;;
4001;SDS011;2015;48.670;9.060;2023-11-21T13:45:49;5.40;;;2.97;;
4001;SDS011;2015;48.670;9.060;2023-11-21T13:48:28;7.17;;;2.83;;
4001;SDS011;2015;48.670;9.060;2023-11-21T13:51:09;5.77;;;2.30;;
4001;SDS011;2015;48.670;9.060;2023-11-21T13:53:50;1.30;;;1.20;;
4001;SDS011;2015;48.670;9.060;2023-11-21T13:56:23;1.23;;;1.07;;
4001;SDS011;2015;48.670;9.060;2023-11-21T13:58:56;1.27;;;1.17;;
4001;SDS011;2015;48.670;9.060;2023-11-21T14:01:30;1.10;;;1.00;;
4001;SDS011;2015;48.670;9.060;2023-11-21T14:04:02;1.20;;;1.10;;
4001;SDS011;2015;48.670;9.060;2023-11-21T14:06:51;2.37;;;1.30;;
4001;SDS011;2015;48.670;9.060;2023-11-21T14:09:26;1.30;;;0.95;;
4001;SDS011;2015;48.670;9.060;2023-11-21T14:12:04;2.00;;;1.03;;
4001;SDS011;2015;48.670;9.060;2023-11-21T14:14:39;1.20;;;1.10;;
4001;SDS011;2015;48.670;9.060;2023-11-21T14:17:11;1.00;;;0.90;;
4001;SDS011;2015;48.670;9.060;2023-11-21T14:19:43;2.50;;;1.20;;
4001;SDS011;2015;48.670;9.060;2023-11-21T14:22:15;2.13;;;1.37;;
4001;SDS011;2015;48.670;9.060;2023-11-21T14:24:48;1.30;;;1.20;;
4001;SDS011;2015;48.670;9.060;2023-11-21T14:27:23;3.10;;;1.60;;
4001;SDS011;2015;48.670;9.060;2023-11-21T14:29:55;1.73;;;1.60;;
4001;SDS011;2015;48.670;9.060;2023-11-21T14:32:28;1.67;;;1.57;;
4001;SDS011;2015;48.670;9.060;2023-11-21T14:35:00;1.80;;;1.70;;
4001;SDS011;2015;48.670;9.060;2023-11-21T14:37:32;1.90;;;1.80;;
4001;SDS011;2015;48.670;9.060;2023-11-21T14:40:04;1.93;;;1.83;;
4001;SDS011;2015;48.670;9.060;2023-11-21T14:42:38;2.87;;;2.73;;
4001;SDS011;2015;48.670;9.060;2023-11-21T14:45:10;2.43;;;2.30;;
4001;SDS011;2015;48.670;9.060;2023-11-21T14:47:44;2.83;;;2.33;;
4001;SDS011;2015;48.670;9.060;2023-11-21T14:50:22;2.63;;;2.53;;
4001;SDS011;2015;48.670;9.060;2023-11-21T14:53:15;2.70;;;2.50;;
4001;SDS011;2015;48.670;9.060;2023-11-21T14:55:47;2.50;;;2.40;;
4001;SDS011;2015;48.670;9.060;2023-11-21T14:58:22;2.30;;;2.20;;
4001;SDS011;2015;48.670;9.060;2023-11-21T15:00:59;2.40;;;2.30;;
4001;SDS011;2015;48.670;9.060;2023-11-21T15:03:31;2.03;;;1.93;;
4001;SDS011;2015;48.670;9.060;2023-11-21T15:06:04;2.80;;;2.43;;
4001;SDS011;2015;48.670;9.060;2023-11-21T15:08:56;2.20;;;2.10;;
4001;SDS011;2015;48.670;9.060;2023-11-21T15:11:37;2.67;;;2.47;;
4001;SDS011;2015;48.670;9.060;2023-11-21T15:14:10;3.47;;;3.17;;
4001;SDS011;2015;48.670;9.060;2023-11-21T15:16:46;3.50;;;3.20;;
4001;SDS011;2015;48.670;9.060;2023-11-21T15:19:22;3.67;;;3.47;;
4001;SDS011;2015;48.670;9.060;2023-11-21T15:21:57;3.33;;;3.07;;
4001;SDS011;2015;48.670;9.060;2023-11-21T15:24:29;4.13;;;3.70;;
4001;SDS011;2015;48.670;9.060;2023-11-21T15:27:01;4.17;;;3.07;;
4001;SDS011;2015;48.670;9.060;2023-11-21T15:29:35;4.17;;;3.87;;
4001;SDS011;2015;48.670;9.060;2023-11-21T15:32:06;4.00;;;3.50;;
4001;SDS011;2015;48.670;9.060;2023-11-21T15:34:39;4.32;;;3.92;;
4001;SDS011;2015;48.670;9.060;2023-11-21T15:37:11;4.33;;;4.00;;
4001;SDS011;2015;48.670;9.060;2023-11-21T15:39:43;5.30;;;4.87;;
4001;SDS011;2015;48.670;9.060;2023-11-21T15:42:16;4.70;;;4.40;;
4001;SDS011;2015;48.670;9.060;2023-11-21T15:44:47;5.07;;;4.50;;
4001;SDS011;2015;48.670;9.060;2023-11-21T15:47:21;4.47;;;3.97;;
4001;SDS011;2015;48.670;9.060;2023-11-21T15:49:53;4.67;;;4.40;;
4001;SDS011;2015;48.670;9.060;2023-11-21T15:52:25;6.25;;;4.85;;
4001;SDS011;2015;48.670;9.060;2023-11-21T15:54:57;4.23;;;3.83;;
4001;SDS011;2015;48.670;9.060;2023-11-21T15:57:29;7.20;;;4.87;;
4001;SDS011;2015;48.670;9.060;2023-11-21T16:00:01;6.20;;;5.40;;
4001;SDS011;2015;48.670;9.060;2023-11-21T16:02:39;5.27;;;4.77;;
4001;SDS011;2015;48.670;9.060;2023-11-21T16:05:11;5.10;;;4.67;;